Aktuell sind 186 Gäste und 2 Mitglieder online

[source: ADDS]
METAR
EDVE 250750Z 28007KT 250V320 9999 BKN019 16/11 Q1021

EDDV 250750Z 27007KT 240V300 8000 -DZ FEW007 SCT012 BKN025 15/13 Q1022 TEMPO 4000 BKN012

ETHS 250720Z 31007KT 9999 SCT008 BKN012 14/12 Q1021 GRN GRN

ETHC 250720Z 28006KT 9999 FEW016 BKN020 16/12 Q1021 WHT WHT BECMG BLU

EDVK 250750Z 01006KT 340V040 9999 FEW010 SCT012 BKN020 13/11 Q1022

TAF
TAF EDVE 250500Z 2506/2515 28005KT 9999 SCT012 BKN020 BECMG 2506/2508 BKN012 TEMPO 2506/2509 BKN008 BECMG 2508/2510 30010KT BKN020

TAF EDDV 250500Z 2506/2606 28005KT 9999 BKN012 TEMPO 2506/2509 BKN008 BECMG 2507/2509 30010KT BECMG 2510/2512 BKN025 BECMG 2518/2520 31004KT TEMPO 2601/2606 BKN010

TAF ETHS 250718Z 2508/2517 30007KT 9999 NSW SCT010 BKN013 BECMG 2509/2511 31007KT 9999 NSW BKN015 BECMG 2511/2513 33007KT 9999 NSW SCT020 BKN030

TAF ETHC 250722Z 2508/2517 28006KT 9999 NSW SCT012 BKN020 BECMG 2508/2510 30008KT 9999 NSW SCT020 BKN030

TAF AMD EDVK 250703Z 2507/2515 33007KT 9999 SCT012 BKN025 TEMPO 2507/2509 BKN012

SR / SS: 02:57 / 19:43 UTC (EDVE 2018-06-25)
Wir begrüßen Stefan als neues FFG Mitglied. Herzlich willkommen im Verein. +++ Ein Schritt weite in der Ausbildung. Miroslaw hat sich Freigeflogen! +++ Dirk hat seinen ersten Alleinflug absolviert. +++ Hallo Michael, Hallo Marc. Willkommen im Verein und always happy landings. +++ David hat sich freigefolgen! Herzlichen Glückwunsch und always happy landings. +++ Hallo Hermann! Willkommen im Verein und always happy landings. +++ +++
Letztes NOTAM EDVE
von 26.06.2018 0400Z bis 26.06.2018 1800Z
OCA(H) VALUES RAISED AS FOLLOWS: LNAV/VNAV RWY 08: ACFT CATEGORY C 555 (282) FEET LNAV/VNAV RWY 08: ACFT CATEGORY D 565 (292) FEET LPV [more]

Letztes NOTAM EDCB
von 22.06.2018 1000Z bis 25.06.2018 1400Z
22 1000-1700, 23 0800-1700, 24 0800-1100, 25 0800-1400
GRASS RWY 09/27 CLSD ASPH RWY 09/27 PPR. SINGLE APPROACHES AND DEPARTURES A [more]


Letztes NOTAM EDBC
von 25.06.2018 0728Z bis 29.07.2018 2359Z
COCHSTEDT DME COD 113.35/CH80Y OUT OF SERVICE.

Letztes NOTAM EDVM
von 06.06.2018 1428Z bis 10.08.2018 2359Z
CRANE ERECTED AT 550M N ARP. ELEV 383FT / 101FT AGL. JIB 50M DAY AND NIGHT MARKED.

Letztes NOTAM EDDV
von 03.07.2018 0930Z bis 05.07.2018 1100Z
OSNABRUECK DVOR OSN FREQ 114.30 MHZ ON MAINT, DO NOT USE.

Letztes NOTAM EDVK
von 07.04.2016 0530Z bis PERM
HEL LDG/DEP HEL AREA SOUTH HAVE TO AVOID TO OVERFLY THE CAMP SW OF HELIPORT.) DUPE

EDCB.png          aerodata150     Radio38